Terminal Aerodrome Forecast
Issued by NWS

Home | Current Version | Previous Version | Text Only | Print | Product List | Glossary On
Versions: 1 2 3 4 5 6 7 8 9 10 11 12 13
000
FTUS45 KTFX 211700
TAFHLN
TAF
KHLN 211731Z 2118/2218 27016G23KT P6SM VCSH SCT040 BKN080
      TEMPO 2119/2123 28025G35KT
     FM220200 28011KT P6SM SCT050 BKN090=

USA.gov is the U.S. government's official web portal to all federal, state and local government web resources and services.